Time;durP1;ratioP1;P1;durP2;ratioP2;P2;SDS_P1;SDS_P2;PMS_P1;PMS_P2;Temp;Humidity;BMP_temperature;BMP_pressure;BME280_temperature;BME280_humidity;BME280_pressure;Samples;Min_cycle;Max_cycle;Signal;HPM_P1;HPM_P2
2022/07/04 00:00:03;;;;;;;2.53;1.98;;;13.00;99.90;;;;;;4978556;28;20417;-73
2022/07/04 00:02:29;;;;;;;3.20;2.10;;;13.00;99.90;;;;;;4979622;28;20033;-72
2022/07/04 00:04:54;;;;;;;2.35;2.13;;;12.90;99.90;;;;;;4978575;28;20397;-73
2022/07/04 00:07:20;;;;;;;2.58;2.15;;;12.80;99.90;;;;;;4978726;28;20123;-72
2022/07/04 00:09:46;;;;;;;3.95;2.40;;;12.70;99.90;;;;;;4979165;28;20038;-72
2022/07/04 00:12:11;;;;;;;2.85;2.50;;;12.60;99.90;;;;;;4971961;28;20107;-72
2022/07/04 00:14:37;;;;;;;4.35;2.30;;;12.50;99.90;;;;;;4942639;28;20056;-72
2022/07/04 00:17:03;;;;;;;3.15;2.85;;;12.50;99.90;;;;;;4960144;28;20031;-72
2022/07/04 00:19:29;;;;;;;3.88;2.40;;;12.40;99.90;;;;;;4979894;28;20093;-72
2022/07/04 00:21:54;;;;;;;4.72;2.33;;;12.30;99.90;;;;;;4980264;28;20039;-72
2022/07/04 00:24:20;;;;;;;2.60;2.40;;;12.30;99.90;;;;;;4978173;28;20030;-72
2022/07/04 00:26:45;;;;;;;5.30;2.50;;;12.30;99.90;;;;;;4979200;28;20058;-72
2022/07/04 00:29:11;;;;;;;3.35;2.78;;;12.20;99.90;;;;;;4971738;28;20121;-72
2022/07/04 00:31:37;;;;;;;2.33;2.13;;;12.20;99.90;;;;;;4960588;28;20030;-72
2022/07/04 00:34:03;;;;;;;2.85;2.40;;;12.10;99.90;;;;;;4977578;28;20335;-72
2022/07/04 00:36:28;;;;;;;4.80;2.92;;;12.00;99.90;;;;;;4979962;28;20120;-71
2022/07/04 00:38:54;;;;;;;4.35;2.38;;;12.00;99.90;;;;;;4979971;28;20034;-72
2022/07/04 00:41:20;;;;;;;3.80;2.28;;;12.00;99.90;;;;;;4978807;28;20239;-72
2022/07/04 00:44:00;;;;;;;4.53;2.10;;;12.10;99.90;;;;;;4978366;28;20025;-72
2022/07/04 00:46:25;;;;;;;3.08;2.42;;;12.10;99.90;;;;;;4968789;28;20038;-72
2022/07/04 00:48:51;;;;;;;2.53;2.33;;;12.10;99.90;;;;;;4960711;28;20374;-71
2022/07/04 00:51:17;;;;;;;3.47;2.63;;;12.00;99.90;;;;;;4979328;28;20052;-72
2022/07/04 00:53:43;;;;;;;3.22;2.50;;;12.00;99.90;;;;;;4979935;28;20037;-72
2022/07/04 00:56:09;;;;;;;4.60;3.15;;;12.10;99.90;;;;;;4979915;28;20034;-72
2022/07/04 00:58:35;;;;;;;3.17;2.35;;;12.10;99.90;;;;;;4980118;28;20030;-72
2022/07/04 01:01:01;;;;;;;3.70;2.78;;;12.20;99.90;;;;;;4979120;28;20385;-72
2022/07/04 01:03:26;;;;;;;3.50;2.10;;;12.20;99.90;;;;;;4969909;28;20501;-72
2022/07/04 01:05:52;;;;;;;3.55;2.42;;;12.20;99.90;;;;;;4959944;28;20465;-71
2022/07/04 01:08:18;;;;;;;2.58;2.30;;;12.20;99.90;;;;;;4962113;28;20034;-72
2022/07/04 01:10:44;;;;;;;3.38;2.50;;;12.20;99.90;;;;;;4979595;28;20532;-72
2022/07/04 01:13:19;;;;;;;3.20;2.17;;;12.20;99.90;;;;;;4970208;28;20038;-72
2022/07/04 01:15:45;;;;;;;2.60;2.38;;;12.10;99.90;;;;;;4959751;28;20033;-72
2022/07/04 01:18:11;;;;;;;3.70;2.60;;;12.10;99.90;;;;;;4959794;28;20309;-72
2022/07/04 01:20:37;;;;;;;2.72;2.50;;;12.00;99.90;;;;;;4959681;28;20110;-72
2022/07/04 01:23:03;;;;;;;2.90;2.28;;;11.90;99.90;;;;;;4961943;28;20023;-71
2022/07/04 01:25:28;;;;;;;4.22;2.80;;;11.90;99.90;;;;;;4978964;28;20026;-72
2022/07/04 01:27:54;;;;;;;3.47;2.42;;;11.80;99.90;;;;;;4974047;28;20043;-72
2022/07/04 01:30:20;;;;;;;3.75;2.60;;;11.80;99.90;;;;;;4982957;28;20382;-72
2022/07/04 01:32:45;;;;;;;3.55;3.00;;;11.70;99.90;;;;;;4966137;28;20431;-72
2022/07/04 01:35:12;;;;;;;4.32;2.70;;;11.60;99.90;;;;;;4963296;28;20045;-72
2022/07/04 01:37:38;;;;;;;2.60;2.40;;;11.60;99.90;;;;;;4977336;28;20057;-72
2022/07/04 01:40:05;;;;;;;7.13;3.10;;;11.60;99.90;;;;;;4964754;28;20061;-72
2022/07/04 01:42:30;;;;;;;4.68;3.08;;;11.60;99.90;;;;;;4999099;28;20148;-72
2022/07/04 01:44:56;;;;;;;3.58;2.97;;;11.50;99.90;;;;;;4983583;28;20108;-72
2022/07/04 01:47:22;;;;;;;5.07;3.05;;;11.40;99.90;;;;;;5001651;28;20025;-72
2022/07/04 01:49:47;;;;;;;3.17;2.50;;;11.40;99.90;;;;;;4967911;28;20621;-72
2022/07/04 01:52:15;;;;;;;3.00;2.70;;;11.30;99.90;;;;;;4965074;28;20031;-72
2022/07/04 01:54:41;;;;;;;4.10;3.17;;;11.20;99.90;;;;;;4962847;28;20101;-72
2022/07/04 01:57:07;;;;;;;4.55;2.78;;;11.20;99.90;;;;;;4981056;28;20053;-72
2022/07/04 02:02:17;;;;;;;5.50;3.20;;;11.00;99.90;;;;;;4963177;28;20084;-72
2022/07/04 02:04:43;;;;;;;4.22;3.08;;;10.90;99.90;;;;;;4962081;28;20545;-72
2022/07/04 02:07:08;;;;;;;2.78;2.58;;;10.90;99.90;;;;;;4963109;28;20469;-72
2022/07/04 02:09:34;;;;;;;5.85;3.10;;;10.90;99.90;;;;;;4962162;28;20045;-72
2022/07/04 02:14:44;;;;;;;3.85;2.90;;;10.80;99.90;;;;;;4967045;28;21427;-72
2022/07/04 02:17:11;;;;;;;4.63;3.20;;;10.80;99.90;;;;;;4980322;28;20034;-72
2022/07/04 02:19:36;;;;;;;6.25;2.97;;;10.70;99.90;;;;;;4980936;28;20030;-73
2022/07/04 02:22:02;;;;;;;3.22;2.80;;;10.70;99.90;;;;;;4962809;28;20046;-72
2022/07/04 02:24:28;;;;;;;4.57;3.30;;;10.60;99.90;;;;;;4966228;28;20398;-72
2022/07/04 02:26:54;;;;;;;4.85;3.53;;;10.60;99.90;;;;;;4979182;28;20042;-72
2022/07/04 02:29:20;;;;;;;5.05;3.78;;;10.60;99.90;;;;;;4962057;28;20157;-73
2022/07/04 02:31:45;;;;;;;6.80;3.90;;;10.60;99.90;;;;;;4980545;28;20058;-71
2022/07/04 02:34:11;;;;;;;4.45;3.90;;;10.60;99.90;;;;;;4981421;28;20045;-72
2022/07/04 02:36:37;;;;;;;6.63;4.43;;;10.60;99.90;;;;;;4976060;28;20031;-72
2022/07/04 02:39:04;;;;;;;6.32;3.97;;;10.60;99.90;;;;;;4944020;28;20029;-72
2022/07/04 02:41:31;;;;;;;6.40;3.50;;;10.60;99.90;;;;;;4975293;28;20104;-72
2022/07/04 02:43:56;;;;;;;7.43;3.83;;;10.60;99.90;;;;;;4964718;28;20443;-72
2022/07/04 02:46:23;;;;;;;6.63;4.00;;;10.50;99.90;;;;;;4965617;28;20106;-72
2022/07/04 02:48:48;;;;;;;5.85;4.00;;;10.50;99.90;;;;;;4977522;28;20030;-72
2022/07/04 02:51:14;;;;;;;5.53;3.25;;;10.50;99.90;;;;;;4968109;28;20046;-72
2022/07/04 02:53:40;;;;;;;7.13;3.40;;;10.40;99.90;;;;;;4944903;28;20034;-72
2022/07/04 02:56:05;;;;;;;5.10;3.42;;;10.40;99.90;;;;;;4965945;28;20029;-72
2022/07/04 02:58:32;;;;;;;4.50;3.63;;;10.30;99.90;;;;;;4981931;28;20574;-72
2022/07/04 03:00:58;;;;;;;7.22;3.22;;;10.20;99.90;;;;;;4978108;28;20485;-71
2022/07/04 03:03:23;;;;;;;6.00;3.13;;;10.20;99.90;;;;;;4962637;28;20035;-72
2022/07/04 03:05:49;;;;;;;4.55;2.80;;;10.20;99.90;;;;;;4970431;28;20050;-72
2022/07/04 03:08:15;;;;;;;7.15;3.33;;;10.20;99.90;;;;;;4985416;28;20032;-73
2022/07/04 03:10:40;;;;;;;3.50;3.17;;;10.10;99.90;;;;;;5001400;28;20038;-72
2022/07/04 03:13:06;;;;;;;3.63;2.75;;;10.10;99.90;;;;;;4993625;28;20587;-72
2022/07/04 03:15:32;;;;;;;3.70;2.60;;;10.10;99.90;;;;;;4978578;28;20113;-72
2022/07/04 03:17:57;;;;;;;4.80;3.08;;;10.10;99.90;;;;;;4981363;28;20053;-73
2022/07/04 03:20:23;;;;;;;4.95;3.05;;;10.10;99.90;;;;;;4960971;28;20496;-72
2022/07/04 03:22:50;;;;;;;4.20;2.97;;;10.10;99.90;;;;;;4969754;28;20037;-72
2022/07/04 03:25:16;;;;;;;4.10;2.70;;;10.20;99.90;;;;;;4980983;28;20058;-72
2022/07/04 03:27:41;;;;;;;3.33;3.00;;;10.10;99.90;;;;;;4981501;28;20058;-73
2022/07/04 03:30:07;;;;;;;3.50;2.72;;;10.10;99.90;;;;;;4979942;28;20133;-72
2022/07/04 03:32:33;;;;;;;3.35;2.63;;;10.10;99.90;;;;;;4980706;28;20474;-72
2022/07/04 03:34:58;;;;;;;2.83;2.60;;;10.00;99.90;;;;;;4979078;28;20239;-72
2022/07/04 03:37:24;;;;;;;4.03;2.70;;;9.90;99.90;;;;;;4963183;28;20195;-72
2022/07/04 03:39:49;;;;;;;4.53;3.25;;;9.90;99.90;;;;;;4964246;28;20134;-72
2022/07/04 03:42:15;;;;;;;5.75;3.33;;;9.90;99.90;;;;;;4981170;28;20034;-72
2022/07/04 03:44:41;;;;;;;4.90;2.97;;;9.90;99.90;;;;;;4981208;28;20030;-72
2022/07/04 03:47:06;;;;;;;4.13;3.00;;;9.90;99.90;;;;;;4980811;28;20066;-72
2022/07/04 03:49:32;;;;;;;3.45;3.03;;;9.90;99.90;;;;;;4980529;28;20044;-72
2022/07/04 03:51:58;;;;;;;4.65;2.83;;;9.90;99.90;;;;;;4980747;28;20051;-72
2022/07/04 03:54:23;;;;;;;4.53;2.80;;;9.90;99.90;;;;;;4980138;28;20062;-72
2022/07/04 03:56:49;;;;;;;4.25;3.03;;;9.80;99.90;;;;;;4981138;28;20421;-72
2022/07/04 03:59:15;;;;;;;3.33;2.95;;;9.80;99.90;;;;;;4981250;28;20468;-72
2022/07/04 04:01:41;;;;;;;6.57;3.10;;;9.80;99.90;;;;;;4977128;28;20096;-72
2022/07/04 04:06:51;;;;;;;4.20;2.53;;;9.90;99.90;;;;;;4961797;28;20731;-72
2022/07/04 04:09:18;;;;;;;3.08;2.78;;;10.00;99.90;;;;;;4961199;28;20486;-72
2022/07/04 04:11:45;;;;;;;4.10;3.20;;;10.10;99.90;;;;;;4961855;28;20026;-72
2022/07/04 04:14:12;;;;;;;6.47;3.28;;;10.10;99.90;;;;;;4966431;28;20027;-72
2022/07/04 04:16:38;;;;;;;4.85;2.90;;;10.10;99.90;;;;;;4974570;28;20124;-72
2022/07/04 04:19:04;;;;;;;5.07;2.83;;;10.10;99.90;;;;;;4980470;28;20044;-72
2022/07/04 04:21:30;;;;;;;5.72;3.03;;;10.10;99.90;;;;;;4980908;28;20026;-72
2022/07/04 04:23:55;;;;;;;5.68;2.83;;;10.10;99.90;;;;;;4980083;28;20329;-72
2022/07/04 04:26:21;;;;;;;3.00;2.70;;;10.00;99.90;;;;;;4975100;28;20088;-72
2022/07/04 04:28:47;;;;;;;4.60;2.83;;;10.00;99.90;;;;;;4961160;28;20043;-72
2022/07/04 04:31:14;;;;;;;5.43;2.95;;;9.90;99.90;;;;;;4973258;28;20142;-72
2022/07/04 04:33:40;;;;;;;3.50;2.70;;;10.00;99.90;;;;;;4980699;28;20422;-72
2022/07/04 04:36:06;;;;;;;4.70;3.08;;;10.00;99.90;;;;;;4980282;28;20026;-72
2022/07/04 04:38:31;;;;;;;5.13;2.85;;;10.10;99.90;;;;;;4974631;28;20589;-72
2022/07/04 04:40:57;;;;;;;3.83;2.67;;;10.10;99.90;;;;;;4960614;28;20031;-72
2022/07/04 04:43:23;;;;;;;7.40;5.50;;;10.10;99.90;;;;;;4961847;28;20034;-72
2022/07/04 04:45:48;;;;;;;4.00;2.88;;;10.10;99.90;;;;;;4970509;28;20190;-73
2022/07/04 04:48:14;;;;;;;3.75;2.58;;;10.10;99.90;;;;;;4972074;28;20046;-72
2022/07/04 04:50:40;;;;;;;2.97;2.60;;;10.20;99.90;;;;;;4974035;28;20039;-72
2022/07/04 04:53:05;;;;;;;4.32;2.30;;;10.20;99.90;;;;;;4960933;28;20181;-72
2022/07/04 04:55:31;;;;;;;6.45;2.40;;;10.20;99.90;;;;;;4961375;28;20347;-72
2022/07/04 04:57:57;;;;;;;3.05;2.38;;;10.20;99.90;;;;;;4979326;28;20018;-72
2022/07/04 05:00:22;;;;;;;3.83;2.20;;;10.20;99.90;;;;;;4973963;28;20061;-72
2022/07/04 05:02:48;;;;;;;5.57;2.15;;;10.20;99.90;;;;;;4956461;28;20179;-72
2022/07/04 05:05:14;;;;;;;2.80;2.42;;;10.20;99.90;;;;;;4958929;28;20062;-73
2022/07/04 05:07:39;;;;;;;5.03;2.28;;;10.20;99.90;;;;;;4984244;28;20112;-72
2022/07/04 05:10:06;;;;;;;5.22;2.50;;;10.20;99.90;;;;;;4983532;28;20046;-72
2022/07/04 05:12:32;;;;;;;2.53;2.33;;;10.20;99.90;;;;;;4983804;28;20030;-72
2022/07/04 05:14:57;;;;;;;3.80;2.42;;;10.20;99.90;;;;;;4967875;28;20389;-72
2022/07/04 05:17:23;;;;;;;6.28;2.47;;;10.30;99.90;;;;;;4973349;28;20708;-72
2022/07/04 05:19:49;;;;;;;3.42;2.17;;;10.40;99.90;;;;;;4982724;28;20075;-72
2022/07/04 05:22:15;;;;;;;6.22;2.17;;;10.50;99.90;;;;;;4983900;28;20885;-71
2022/07/04 05:24:40;;;;;;;4.53;2.10;;;10.60;99.90;;;;;;4983658;28;20030;-72
2022/07/04 05:27:07;;;;;;;4.95;2.05;;;10.70;99.90;;;;;;4961720;28;20105;-72
2022/07/04 05:29:33;;;;;;;2.78;1.95;;;10.70;99.90;;;;;;4946517;28;20465;-72
2022/07/04 05:31:59;;;;;;;4.10;2.10;;;10.70;99.90;;;;;;4968677;28;20034;-72
2022/07/04 05:34:25;;;;;;;3.92;2.00;;;10.80;99.90;;;;;;4979985;28;20128;-72
2022/07/04 05:36:50;;;;;;;2.08;1.70;;;10.80;99.90;;;;;;4963948;28;20030;-72
2022/07/04 05:39:16;;;;;;;2.88;1.88;;;10.80;99.90;;;;;;4973068;28;20442;-72
2022/07/04 05:41:42;;;;;;;3.10;2.08;;;10.90;99.90;;;;;;4964769;28;20034;-72
2022/07/04 05:44:08;;;;;;;5.15;2.05;;;11.10;99.90;;;;;;4970600;28;20033;-72
2022/07/04 05:46:34;;;;;;;2.17;1.65;;;11.20;99.90;;;;;;4982682;28;20480;-72
2022/07/04 05:49:00;;;;;;;2.55;1.70;;;11.30;99.90;;;;;;4982735;28;20193;-72
2022/07/04 05:51:26;;;;;;;1.73;1.63;;;11.50;99.90;;;;;;4980762;28;20695;-72
2022/07/04 05:53:52;;;;;;;4.68;1.65;;;11.70;99.90;;;;;;4975330;28;20034;-72
2022/07/04 05:56:17;;;;;;;3.55;1.45;;;11.90;99.90;;;;;;4975660;28;20022;-72
2022/07/04 05:58:43;;;;;;;1.98;1.48;;;12.20;99.90;;;;;;4981731;28;20026;-72
2022/07/04 06:01:08;;;;;;;3.53;1.60;;;12.60;99.90;;;;;;4981921;28;20030;-72
2022/07/04 06:03:36;;;;;;;8.63;1.90;;;12.90;99.90;;;;;;4976669;28;20039;-72
2022/07/04 06:06:03;;;;;;;6.60;1.67;;;13.20;99.90;;;;;;4963485;28;20042;-72
2022/07/04 06:08:29;;;;;;;3.42;1.08;;;13.50;99.90;;;;;;4972288;28;20034;-72
2022/07/04 06:10:55;;;;;;;4.15;1.05;;;13.80;99.90;;;;;;4980695;28;20046;-72
2022/07/04 06:13:21;;;;;;;3.35;1.23;;;14.00;99.90;;;;;;4974342;28;20066;-72
2022/07/04 06:15:46;;;;;;;7.68;1.40;;;14.30;99.90;;;;;;4975456;28;20482;-72
2022/07/04 06:18:12;;;;;;;2.28;1.08;;;14.50;99.90;;;;;;4980015;28;20029;-72
2022/07/04 06:20:41;;;;;;;1.40;1.23;;;14.60;99.90;;;;;;4980913;28;20145;-72
2022/07/04 06:23:07;;;;;;;2.50;1.25;;;14.90;99.90;;;;;;4980012;28;20045;-72
2022/07/04 06:25:33;;;;;;;2.22;1.08;;;15.20;99.90;;;;;;4977548;28;20039;-72
2022/07/04 06:27:59;;;;;;;3.80;1.13;;;15.30;99.90;;;;;;4976634;28;20026;-72
2022/07/04 06:30:25;;;;;;;2.22;0.90;;;15.40;99.90;;;;;;4973753;28;20042;-72
2022/07/04 06:32:53;;;;;;;2.20;0.80;;;15.50;99.90;;;;;;4983899;28;20096;-72
2022/07/04 06:38:06;;;;;;;99.35;53.17;;;15.70;99.90;;;;;;4979316;28;20080;-72
2022/07/04 06:40:32;;;;;;;5.15;1.42;;;15.90;99.90;;;;;;4976269;28;20066;-71
2022/07/04 06:42:57;;;;;;;2.65;1.40;;;15.80;99.90;;;;;;4965540;28;20033;-71
2022/07/04 06:45:23;;;;;;;3.45;0.90;;;15.90;99.90;;;;;;4973795;28;20034;-71
2022/07/04 06:47:50;;;;;;;2.95;1.10;;;15.90;99.90;;;;;;4964322;28;20072;-71
2022/07/04 06:50:17;;;;;;;2.08;0.93;;;15.90;99.90;;;;;;4985851;28;20034;-72
2022/07/04 06:52:43;;;;;;;2.70;1.25;;;16.00;99.90;;;;;;4975075;28;20474;-71
2022/07/04 06:55:09;;;;;;;1.00;0.90;;;16.00;99.90;;;;;;4978045;28;20096;-72
2022/07/04 06:57:35;;;;;;;1.25;0.80;;;16.10;99.90;;;;;;4961499;28;20493;-72
2022/07/04 07:00:02;;;;;;;3.75;0.80;;;16.00;99.90;;;;;;4978921;28;20049;-74
2022/07/04 07:02:28;;;;;;;0.77;0.70;;;15.60;99.90;;;;;;4983560;28;20227;-74
2022/07/04 07:04:56;;;;;;;3.65;1.15;;;15.30;99.90;;;;;;4969069;28;20519;-74
2022/07/04 07:07:24;;;;;;;2.58;1.10;;;15.10;99.90;;;;;;4974362;28;20030;-75
2022/07/04 07:09:53;;;;;;;47.55;29.65;;;14.90;99.90;;;;;;4970621;28;20089;-74
2022/07/04 07:12:19;;;;;;;10.55;7.05;;;14.80;99.90;;;;;;4976232;28;20418;-74
2022/07/04 07:14:45;;;;;;;3.75;1.23;;;14.80;99.90;;;;;;4961450;28;20026;-74
2022/07/04 07:17:11;;;;;;;3.17;1.00;;;14.70;99.90;;;;;;4961263;28;20040;-73
2022/07/04 07:19:36;;;;;;;1.27;0.75;;;14.60;99.90;;;;;;4977176;28;20519;-74
2022/07/04 07:22:02;;;;;;;2.67;0.80;;;14.60;99.90;;;;;;4980136;28;20080;-73
2022/07/04 07:24:30;;;;;;;4.80;2.95;;;14.60;99.90;;;;;;4952292;28;20181;-74
2022/07/04 07:26:57;;;;;;;1.38;0.52;;;14.70;99.90;;;;;;4976806;28;20025;-74
2022/07/04 07:29:23;;;;;;;0.80;0.77;;;14.70;99.90;;;;;;4969046;28;20034;-74
2022/07/04 07:31:48;;;;;;;1.88;0.80;;;14.90;99.90;;;;;;4974376;28;20453;-73
2022/07/04 07:34:14;;;;;;;0.55;0.50;;;15.10;99.90;;;;;;4972175;28;20029;-73
2022/07/04 07:36:40;;;;;;;3.45;0.63;;;16.70;99.90;;;;;;4970780;28;20125;-74
2022/07/04 07:39:05;;;;;;;1.17;0.50;;;21.10;99.90;;;;;;4629447;28;10000369;-74
2022/07/04 07:41:31;;;;;;;4.63;2.70;;;24.10;93.50;;;;;;4977771;28;20039;-74
2022/07/04 07:43:57;;;;;;;0.90;0.50;;;27.10;67.60;;;;;;4979138;28;20520;-74
2022/07/04 07:46:22;;;;;;;1.65;0.50;;;29.70;50.30;;;;;;4976089;28;20496;-74
2022/07/04 07:48:48;;;;;;;0.32;0.30;;;30.00;45.40;;;;;;4978840;28;20026;-75
2022/07/04 07:51:15;;;;;;;0.90;0.30;;;32.00;41.20;;;;;;4966182;28;20612;-75
2022/07/04 07:53:41;;;;;;;2.63;0.73;;;33.60;39.40;;;;;;4965230;28;20092;-75
2022/07/04 07:56:07;;;;;;;6.28;1.00;;;35.10;35.90;;;;;;4966663;28;21296;-74
2022/07/04 07:58:32;;;;;;;1.20;0.22;;;35.30;33.70;;;;;;4952752;28;20520;-74
2022/07/04 08:01:01;;;;;;;0.77;0.28;;;35.80;31.90;;;;;;4965356;28;20192;-76
2022/07/04 08:06:13;;;;;;;1.90;0.20;;;38.10;30.00;;;;;;4967147;28;20097;-76
2022/07/04 08:08:38;;;;;;;1.25;0.30;;;36.70;28.70;;;;;;4970971;28;20481;-74
2022/07/04 08:11:04;;;;;;;0.55;0.13;;;36.10;29.90;;;;;;4968392;28;20049;-73
2022/07/04 08:13:30;;;;;;;1.00;0.43;;;35.60;32.10;;;;;;4959482;28;20026;-73
2022/07/04 08:15:56;;;;;;;2.15;0.45;;;33.80;31.10;;;;;;4977849;28;20045;-75
2022/07/04 08:18:22;;;;;;;1.08;0.43;;;33.20;32.70;;;;;;4972859;28;20040;-74
2022/07/04 08:20:49;;;;;;;0.20;0.20;;;31.50;33.30;;;;;;4956499;28;20099;-74
2022/07/04 08:23:15;;;;;;;3.35;0.45;;;31.20;34.70;;;;;;4972057;28;20030;-74
2022/07/04 08:25:41;;;;;;;2.30;0.20;;;30.00;37.90;;;;;;4965019;28;20094;-74
2022/07/04 08:28:07;;;;;;;2.92;0.55;;;29.70;38.50;;;;;;4960241;28;20030;-74
2022/07/04 08:30:33;;;;;;;4.90;0.50;;;29.20;40.40;;;;;;4974015;28;20038;-74
2022/07/04 08:32:58;;;;;;;3.55;0.20;;;29.00;41.40;;;;;;4972944;28;20496;-73
2022/07/04 08:35:25;;;;;;;0.15;0.10;;;29.20;41.20;;;;;;4969365;28;20042;-73
2022/07/04 08:37:53;;;;;;;3.13;0.63;;;29.70;39.30;;;;;;4970743;28;20045;-73
2022/07/04 08:40:24;;;;;;;0.30;0.30;;;31.40;36.40;;;;;;4974388;28;20054;-73
2022/07/04 08:42:50;;;;;;;2.65;0.30;;;31.80;36.90;;;;;;4977988;28;20093;-72
2022/07/04 08:45:21;;;;;;;2.20;0.43;;;31.90;37.30;;;;;;4974712;28;20741;-73
2022/07/04 08:47:53;;;;;;;1.65;0.40;;;31.60;35.80;;;;;;4974197;28;20109;-73
2022/07/04 08:50:27;;;;;;;0.32;0.20;;;31.10;37.30;;;;;;4968002;28;20034;-73
2022/07/04 08:53:03;;;;;;;0.82;0.32;;;32.50;35.80;;;;;;4974961;28;22351;-75
2022/07/04 08:58:26;;;;;;;2.28;0.75;;;32.90;34.70;;;;;;4978396;28;20500;-75
2022/07/04 09:00:53;;;;;;;1.25;0.40;;;32.80;35.60;;;;;;4955373;28;20501;-75
2022/07/04 09:03:19;;;;;;;1.77;0.40;;;32.40;36.00;;;;;;4975750;28;20034;-75
2022/07/04 09:05:45;;;;;;;0.80;0.28;;;32.50;38.00;;;;;;4973810;28;20039;-75
2022/07/04 09:08:11;;;;;;;0.30;0.20;;;31.40;36.00;;;;;;4954151;28;20419;-72
2022/07/04 09:10:37;;;;;;;1.05;0.30;;;32.70;37.30;;;;;;4974669;28;20088;-72
2022/07/04 09:13:05;;;;;;;3.35;0.17;;;34.00;34.50;;;;;;4945015;28;20771;-73
2022/07/04 09:15:32;;;;;;;0.40;0.15;;;34.20;33.60;;;;;;4976672;28;20031;-74
2022/07/04 09:17:59;;;;;;;0.15;0.10;;;35.20;31.80;;;;;;4976416;28;20034;-74
2022/07/04 09:20:25;;;;;;;2.00;0.30;;;36.70;31.50;;;;;;4974816;28;20636;-75
2022/07/04 09:22:52;;;;;;;0.22;0.10;;;36.30;29.90;;;;;;4979226;28;20450;-76
2022/07/04 09:25:19;;;;;;;1.48;0.10;;;35.90;29.50;;;;;;4976832;28;20117;-75
2022/07/04 09:27:47;;;;;;;2.08;0.10;;;36.00;29.60;;;;;;4977442;28;20088;-75
2022/07/04 09:30:17;;;;;;;0.40;0.38;;;34.20;31.60;;;;;;4964885;28;20049;-75
2022/07/04 09:32:50;;;;;;;0.40;0.20;;;34.20;30.70;;;;;;4964685;28;20034;-75
2022/07/04 09:35:20;;;;;;;0.98;0.20;;;34.70;32.70;;;;;;4970377;28;20034;-75
2022/07/04 09:37:47;;;;;;;3.80;0.30;;;35.40;33.70;;;;;;4969818;28;20029;-75
2022/07/04 09:40:25;;;;;;;0.50;0.20;;;34.30;31.40;;;;;;4974038;28;20046;-77
2022/07/04 09:42:52;;;;;;;1.83;0.30;;;33.90;31.50;;;;;;4959133;28;20586;-75
2022/07/04 09:45:21;;;;;;;0.80;0.30;;;33.30;29.70;;;;;;4975361;28;20116;-76
2022/07/04 09:47:47;;;;;;;1.33;0.45;;;33.60;32.00;;;;;;4976168;28;20101;-76
2022/07/04 09:50:18;;;;;;;9.55;0.90;;;33.80;32.40;;;;;;4960416;28;20157;-76
2022/07/04 09:52:53;;;;;;;1.48;0.75;;;32.10;34.40;;;;;;4981377;28;20033;-76
2022/07/04 09:55:27;;;;;;;0.35;0.22;;;31.10;35.00;;;;;;4972099;28;20026;-76
2022/07/04 09:57:56;;;;;;;0.80;0.38;;;32.20;37.30;;;;;;4978214;28;20808;-76
2022/07/04 10:00:27;;;;;;;0.77;0.30;;;31.70;35.00;;;;;;4981746;28;20121;-77
2022/07/04 10:02:54;;;;;;;0.73;0.30;;;31.80;37.30;;;;;;4621517;28;10000095;-75
2022/07/04 10:05:29;;;;;;;2.00;0.20;;;32.40;33.20;;;;;;4970067;28;20129;-75
2022/07/04 10:07:57;;;;;;;0.75;0.60;;;32.00;33.40;;;;;;4933611;28;20066;-75
2022/07/04 10:10:24;;;;;;;0.93;0.30;;;31.40;36.90;;;;;;4945556;28;20042;-75
2022/07/04 10:12:52;;;;;;;1.73;0.50;;;31.70;38.20;;;;;;4958282;28;20038;-74
2022/07/04 10:15:18;;;;;;;10.65;0.98;;;33.40;33.60;;;;;;4960520;28;20035;-76
2022/07/04 10:17:44;;;;;;;1.15;0.22;;;32.30;33.90;;;;;;4954355;28;20031;-76
2022/07/04 10:20:12;;;;;;;1.73;0.30;;;30.90;36.00;;;;;;4958610;28;20041;-76
2022/07/04 10:22:37;;;;;;;1.40;0.32;;;29.90;38.80;;;;;;4960382;28;20126;-76
2022/07/04 10:25:07;;;;;;;10.75;0.73;;;30.80;36.00;;;;;;4953284;28;20569;-77
2022/07/04 10:27:34;;;;;;;0.85;0.30;;;31.20;39.10;;;;;;4953447;28;20110;-76
2022/07/04 10:30:00;;;;;;;1.38;0.35;;;31.60;35.30;;;;;;4955421;28;20035;-76
2022/07/04 10:32:27;;;;;;;2.50;0.38;;;31.80;34.40;;;;;;4947587;28;20034;-75
2022/07/04 10:34:53;;;;;;;0.82;0.50;;;31.70;35.20;;;;;;4959470;28;20042;-76
2022/07/04 10:37:20;;;;;;;0.90;0.47;;;31.70;36.60;;;;;;4956078;28;20023;-76
2022/07/04 10:39:46;;;;;;;1.85;0.70;;;32.80;37.30;;;;;;4956468;28;20034;-74
2022/07/04 10:42:24;;;;;;;2.25;0.77;;;32.90;35.20;;;;;;4958672;28;20480;-76
2022/07/04 10:44:50;;;;;;;2.22;0.77;;;31.30;34.80;;;;;;4938890;28;20113;-75
2022/07/04 10:47:29;;;;;;;2.65;0.50;;;30.40;39.30;;;;;;4943279;28;20114;-75
2022/07/04 10:49:55;;;;;;;0.55;0.38;;;30.40;40.30;;;;;;4957481;28;20061;-75
2022/07/04 10:52:20;;;;;;;1.20;0.28;;;30.90;37.70;;;;;;4957602;28;20030;-75
2022/07/04 10:54:46;;;;;;;0.70;0.30;;;32.00;38.80;;;;;;4958251;28;20763;-76
2022/07/04 10:57:23;;;;;;;0.43;0.30;;;31.20;34.90;;;;;;4940701;28;20455;-75
2022/07/04 10:59:58;;;;;;;2.10;0.50;;;30.30;41.00;;;;;;4951484;28;20027;-75
2022/07/04 11:02:31;;;;;;;0.60;0.30;;;29.90;41.20;;;;;;4958599;28;20840;-75
2022/07/04 11:05:06;;;;;;;2.78;0.43;;;29.90;36.90;;;;;;4959088;28;20105;-76
2022/07/04 11:07:40;;;;;;;2.38;0.47;;;29.00;39.10;;;;;;4976441;28;20531;-75
2022/07/04 11:10:21;;;;;;;45.65;3.90;;;28.90;42.80;;;;;;4966976;28;20039;-75
2022/07/04 11:12:53;;;;;;;1.45;0.40;;;28.40;41.90;;;;;;4956475;28;20027;-75
2022/07/04 11:15:25;;;;;;;7.75;1.05;;;28.20;42.50;;;;;;4974158;28;20036;-75
2022/07/04 11:17:52;;;;;;;5.55;0.50;;;28.20;44.50;;;;;;4978114;28;20044;-75
2022/07/04 11:20:19;;;;;;;2.00;0.30;;;28.70;44.70;;;;;;4949345;28;20034;-76
2022/07/04 11:22:44;;;;;;;1.98;0.70;;;29.50;44.00;;;;;;4965460;28;20133;-75
2022/07/04 11:25:11;;;;;;;1.83;0.30;;;29.20;43.40;;;;;;4962399;28;20113;-76
2022/07/04 11:27:38;;;;;;;1.58;0.88;;;29.80;45.40;;;;;;4974672;28;20046;-76
2022/07/04 11:30:04;;;;;;;2.28;0.57;;;29.50;42.90;;;;;;4974961;28;20042;-75
2022/07/04 11:32:31;;;;;;;2.60;0.50;;;28.80;44.50;;;;;;4976902;28;20022;-75
2022/07/04 11:34:57;;;;;;;3.38;0.82;;;28.00;46.80;;;;;;4978711;28;20675;-75
2022/07/04 11:37:23;;;;;;;2.78;0.45;;;28.10;50.80;;;;;;4983936;28;20030;-74
2022/07/04 11:45:02;;;;;;;2.08;0.45;;;28.00;48.80;;;;;;4976831;28;20437;-77
2022/07/04 11:45:48;;;;;;;1.23;0.50;;;26.90;51.10;;;;;;4969173;28;20037;-76
2022/07/04 11:48:22;;;;;;;3.30;0.90;;;27.00;51.50;;;;;;4974972;28;20030;-77
2022/07/04 11:50:47;;;;;;;2.47;0.65;;;27.00;48.90;;;;;;4975897;28;20049;-75
2022/07/04 11:53:13;;;;;;;3.67;0.60;;;26.60;50.20;;;;;;4958737;28;20030;-76
2022/07/04 11:55:50;;;;;;;2.63;0.73;;;26.40;53.30;;;;;;4976870;28;20934;-77
2022/07/04 11:58:16;;;;;;;1.00;0.50;;;27.10;56.70;;;;;;4958722;28;20039;-77
2022/07/04 12:00:42;;;;;;;2.58;1.08;;;26.60;55.30;;;;;;4943163;28;20070;-76
2022/07/04 12:03:09;;;;;;;1.73;0.52;;;26.50;55.20;;;;;;4967971;28;20600;-74
2022/07/04 12:05:36;;;;;;;1.65;0.40;;;26.10;56.80;;;;;;4950040;28;20055;-74
2022/07/04 12:08:04;;;;;;;4.47;0.47;;;25.80;58.00;;;;;;4952412;28;20047;-74
2022/07/04 12:10:30;;;;;;;2.90;0.60;;;25.10;60.40;;;;;;4944250;28;20093;-74
2022/07/04 12:13:10;;;;;;;3.55;0.85;;;24.70;64.90;;;;;;4955863;28;20027;-74
2022/07/04 12:15:44;;;;;;;3.70;0.73;;;24.40;70.80;;;;;;4936797;28;20035;-74
2022/07/04 12:18:43;;;;;;;3.80;0.63;;;24.40;68.80;;;;;;4971908;28;20067;-74
2022/07/04 12:21:17;;;;;;;0.98;0.65;;;25.50;75.60;;;;;;4906091;28;20043;-77
2022/07/04 12:23:54;;;;;;;5.22;1.02;;;26.20;70.70;;;;;;4948695;28;20394;-77
2022/07/04 12:26:19;;;;;;;3.22;0.30;;;26.80;58.00;;;;;;4957332;28;20062;-76
2022/07/04 12:28:45;;;;;;;1.45;0.70;;;26.60;58.00;;;;;;4949358;28;20043;-77
2022/07/04 12:31:11;;;;;;;3.65;0.70;;;26.00;61.50;;;;;;4950257;28;20062;-77
2022/07/04 12:33:36;;;;;;;0.95;0.50;;;25.90;69.90;;;;;;4937605;28;20027;-77
2022/07/04 12:36:03;;;;;;;4.55;0.57;;;26.10;77.40;;;;;;4957097;28;20026;-77
2022/07/04 12:38:29;;;;;;;2.15;0.57;;;26.10;62.80;;;;;;4948611;28;20026;-76
2022/07/04 12:41:02;;;;;;;4.53;1.02;;;26.00;66.40;;;;;;4954343;28;20076;-79
2022/07/04 12:43:42;;;;;;;2.50;0.35;;;25.90;76.10;;;;;;4954038;28;20027;-78
2022/07/04 12:46:08;;;;;;;2.40;0.65;;;25.10;61.00;;;;;;4938575;28;20130;-76
2022/07/04 12:48:35;;;;;;;1.42;0.50;;;23.90;70.40;;;;;;4942993;28;20537;-77
2022/07/04 12:51:15;;;;;;;3.10;0.75;;;23.80;71.00;;;;;;4960209;28;20039;-76
2022/07/04 12:53:43;;;;;;;1.83;0.52;;;24.10;70.90;;;;;;4963539;28;20031;-76
2022/07/04 12:56:26;;;;;;;1.88;0.47;;;24.60;64.60;;;;;;4958627;28;20030;-75
2022/07/04 12:58:52;;;;;;;4.05;0.88;;;24.60;65.60;;;;;;4957954;28;20078;-76
2022/07/04 13:01:17;;;;;;;1.20;0.30;;;24.70;67.20;;;;;;4957816;28;20117;-75
2022/07/04 13:03:43;;;;;;;4.68;0.50;;;24.70;69.20;;;;;;4943143;28;20050;-76
2022/07/04 13:06:09;;;;;;;3.33;0.50;;;25.00;73.50;;;;;;4963393;28;20050;-75